Time;durP1;ratioP1;P1;durP2;ratioP2;P2;SDS_P1;SDS_P2;PMS_P1;PMS_P2;Temp;Humidity;BMP_temperature;BMP_pressure;BME280_temperature;BME280_humidity;BME280_pressure;Samples;Min_cycle;Max_cycle;Signal;HPM_P1;HPM_P2
2022/10/24 00:01:28;;;;;;;;;;;;;;;8.66;100.00;95723.09;5066757;28;20591;-68
2022/10/24 00:03:55;;;;;;;;;;;;;;;8.58;100.00;95717.06;5062978;28;20023;-68
2022/10/24 00:06:21;;;;;;;;;;;;;;;8.60;100.00;95717.66;5066612;28;20066;-68
2022/10/24 00:08:48;;;;;;;;;;;;;;;8.52;100.00;95719.66;5058708;28;19928;-68
2022/10/24 00:11:22;;;;;;;;;;;;;;;8.42;100.00;95709.66;5064608;28;20309;-68
2022/10/24 00:13:50;;;;;;;;;;;;;;;8.37;100.00;95722.38;5061911;28;19926;-68
2022/10/24 00:16:17;;;;;;;;;;;;;;;8.32;100.00;95714.38;5069293;28;19936;-68
2022/10/24 00:18:43;;;;;;;;;;;;;;;8.30;100.00;95721.56;5063968;28;19936;-68
2022/10/24 00:21:10;;;;;;;;;;;;;;;8.27;100.00;95711.56;5064549;28;19924;-68
2022/10/24 00:23:37;;;;;;;;;;;;;;;8.20;100.00;95712.34;5068114;28;20067;-68
2022/10/24 00:26:04;;;;;;;;;;;;;;;8.24;100.00;95713.53;5068488;28;19928;-67
2022/10/24 00:28:32;;;;;;;;;;;;;;;8.19;100.00;95713.34;5068866;28;19972;-67
2022/10/24 00:30:58;;;;;;;;;;;;;;;8.23;100.00;95711.97;5060152;28;19920;-68
2022/10/24 00:33:25;;;;;;;;;;;;;;;8.23;100.00;95706.75;5064457;28;19921;-67
2022/10/24 00:35:51;;;;;;;;;;;;;;;8.19;100.00;95710.75;5060384;28;19993;-70
2022/10/24 00:38:19;;;;;;;;;;;;;;;8.16;100.00;95705.16;5064456;28;19936;-67
2022/10/24 00:40:45;;;;;;;;;;;;;;;8.18;100.00;95703.94;5062181;28;19928;-69
2022/10/24 00:43:13;;;;;;;;;;;;;;;8.22;100.00;95710.34;5064886;28;19968;-67
2022/10/24 00:45:40;;;;;;;;;;;;;;;8.17;100.00;95702.34;5060038;28;21008;-69
2022/10/24 00:48:12;;;;;;;;;;;;;;;8.15;100.00;95701.72;5065159;28;19963;-68
2022/10/24 00:50:39;;;;;;;;;;;;;;;8.16;100.00;95703.34;5058820;28;20392;-69
2022/10/24 00:53:06;;;;;;;;;;;;;;;8.16;100.00;95702.56;5059957;28;19982;-67
2022/10/24 00:55:32;;;;;;;;;;;;;;;8.12;100.00;95709.94;5062664;28;20031;-68
2022/10/24 00:58:00;;;;;;;;;;;;;;;8.12;100.00;95704.72;5059034;28;20611;-68
2022/10/24 01:00:29;;;;;;;;;;;;;;;8.15;100.00;95706.91;5060034;28;20555;-68
2022/10/24 01:02:56;;;;;;;;;;;;;;;8.23;100.00;95706.75;5060139;28;19932;-70
2022/10/24 01:05:25;;;;;;;;;;;;;;;8.19;100.00;95704.75;5061964;28;19975;-69
2022/10/24 01:07:52;;;;;;;;;;;;;;;8.13;100.00;95702.94;5057993;28;19928;-68
2022/10/24 01:10:18;;;;;;;;;;;;;;;8.11;100.00;95705.72;5060009;28;20417;-68
2022/10/24 01:12:48;;;;;;;;;;;;;;;8.16;100.00;95710.34;5058891;28;19925;-68
2022/10/24 01:15:14;;;;;;;;;;;;;;;8.14;100.00;95701.91;5060548;28;19967;-68
2022/10/24 01:17:44;;;;;;;;;;;;;;;8.10;100.00;95701.50;5058165;28;19933;-68
2022/10/24 01:20:25;;;;;;;;;;;;;;;8.06;100.00;95700.31;5059373;28;20574;-70
2022/10/24 01:22:55;;;;;;;;;;;;;;;8.04;100.00;95702.28;5062531;28;20032;-69
2022/10/24 01:25:22;;;;;;;;;;;;;;;8.04;100.00;95697.09;5066857;28;20387;-69
2022/10/24 01:28:08;;;;;;;;;;;;;;;8.06;100.00;95697.72;5062017;28;19932;-68
2022/10/24 01:30:41;;;;;;;;;;;;;;;8.03;100.00;95695.50;5061550;28;19936;-68
2022/10/24 01:33:21;;;;;;;;;;;;;;;7.99;100.00;95694.28;5064030;28;20074;-69
2022/10/24 01:35:54;;;;;;;;;;;;;;;7.97;100.00;95701.47;5065673;28;20134;-68
2022/10/24 01:38:20;;;;;;;;;;;;;;;7.91;100.00;95697.84;5064245;28;20029;-68
2022/10/24 01:40:49;;;;;;;;;;;;;;;7.89;100.00;95691.28;5063049;28;19938;-68
2022/10/24 01:43:19;;;;;;;;;;;;;;;7.88;100.00;95694.84;5064728;28;19967;-68
2022/10/24 01:45:48;;;;;;;;;;;;;;;7.82;100.00;95689.44;5060424;28;19978;-69
2022/10/24 01:48:18;;;;;;;;;;;;;;;7.84;100.00;95694.44;5062489;28;19994;-69
2022/10/24 01:50:47;;;;;;;;;;;;;;;7.85;100.00;95691.66;5055514;28;19931;-68
2022/10/24 01:53:14;;;;;;;;;;;;;;;7.87;100.00;95690.63;5064218;28;20792;-70
2022/10/24 01:55:41;;;;;;;;;;;;;;;7.77;100.00;95686.59;5061401;28;19985;-68
2022/10/24 01:58:07;;;;;;;;;;;;;;;7.73;100.00;95689.78;5060599;28;19963;-68
2022/10/24 02:00:34;;;;;;;;;;;;;;;7.68;100.00;95692.94;5055525;28;19947;-68
2022/10/24 02:03:15;;;;;;;;;;;;;;;7.70;100.00;95690.94;5057349;28;19924;-69
2022/10/24 02:05:44;;;;;;;;;;;;;;;7.79;100.00;95689.00;5053466;28;20028;-68
2022/10/24 02:08:17;;;;;;;;;;;;;;;7.75;100.00;95696.38;5058161;28;20092;-68
2022/10/24 02:10:47;;;;;;;;;;;;;;;7.79;100.00;95694.19;5058372;28;19971;-69
2022/10/24 02:13:26;;;;;;;;;;;;;;;7.71;100.00;95694.38;5062053;28;19985;-68
2022/10/24 02:15:54;;;;;;;;;;;;;;;7.64;100.00;95696.91;5063047;28;19929;-68
2022/10/24 02:18:21;;;;;;;;;;;;;;;7.68;100.00;95700.72;5063477;28;19938;-69
2022/10/24 02:20:48;;;;;;;;;;;;;;;7.75;100.00;95698.16;5065483;28;20020;-68
2022/10/24 02:23:17;;;;;;;;;;;;;;;7.82;100.00;95699.81;5059671;28;20429;-68
2022/10/24 02:25:47;;;;;;;;;;;;;;;7.74;100.00;95692.19;5066601;28;20316;-68
2022/10/24 02:28:19;;;;;;;;;;;;;;;7.66;100.00;95710.50;5067019;28;20027;-69
2022/10/24 02:30:49;;;;;;;;;;;;;;;7.60;100.00;95703.47;5066658;28;19947;-68
2022/10/24 02:33:16;;;;;;;;;;;;;;;7.63;100.00;95703.09;5067130;28;19936;-68
2022/10/24 02:35:44;;;;;;;;;;;;;;;7.61;100.00;95702.47;5062403;28;19960;-68
2022/10/24 02:38:16;;;;;;;;;;;;;;;7.55;100.00;95698.06;5063053;28;19928;-69
2022/10/24 02:40:45;;;;;;;;;;;;;;;7.58;100.00;95702.84;5066240;28;20389;-68
2022/10/24 02:43:13;;;;;;;;;;;;;;;7.58;100.00;95702.84;5062299;28;19925;-70
2022/10/24 02:45:39;;;;;;;;;;;;;;;7.54;100.00;95701.63;5066410;28;19956;-68
2022/10/24 02:48:09;;;;;;;;;;;;;;;7.50;100.00;95690.84;5064493;28;20015;-68
2022/10/24 02:50:37;;;;;;;;;;;;;;;7.49;100.00;95693.63;5063184;28;19960;-70
2022/10/24 02:53:07;;;;;;;;;;;;;;;7.45;100.00;95694.03;5064877;28;20144;-69
2022/10/24 02:55:34;;;;;;;;;;;;;;;7.43;100.00;95698.56;5072110;28;19924;-68
2022/10/24 02:58:00;;;;;;;;;;;;;;;7.44;100.00;95696.81;5065561;28;19928;-68
2022/10/24 03:00:27;;;;;;;;;;;;;;;7.46;100.00;95700.78;5064445;28;19932;-68
2022/10/24 03:02:54;;;;;;;;;;;;;;;7.49;100.00;95698.81;5068389;28;20424;-69
2022/10/24 03:05:20;;;;;;;;;;;;;;;7.47;100.00;95692.03;5064734;28;19972;-69
2022/10/24 03:07:47;;;;;;;;;;;;;;;7.50;100.00;95690.06;5068405;28;19933;-68
2022/10/24 03:10:13;;;;;;;;;;;;;;;7.51;100.00;95687.28;5061982;28;19952;-68
2022/10/24 03:12:40;;;;;;;;;;;;;;;7.54;100.00;95680.91;5068551;28;19924;-68
2022/10/24 03:15:07;;;;;;;;;;;;;;;7.55;100.00;95687.69;5066325;28;19987;-68
2022/10/24 03:17:33;;;;;;;;;;;;;;;7.55;100.00;95687.69;5063651;28;19960;-68
2022/10/24 03:20:00;;;;;;;;;;;;;;;7.56;100.00;95684.91;5065795;28;19928;-68
2022/10/24 03:22:27;;;;;;;;;;;;;;;7.54;100.00;95688.66;5069934;28;20439;-69
2022/10/24 03:25:00;;;;;;;;;;;;;;;7.51;100.00;95681.25;5064172;28;19925;-68
2022/10/24 03:27:27;;;;;;;;;;;;;;;7.43;100.00;95679.63;5095804;28;20655;-68
2022/10/24 03:29:53;;;;;;;;;;;;;;;7.40;100.00;95680.81;5066225;28;20420;-69
2022/10/24 03:32:20;;;;;;;;;;;;;;;7.34;100.00;95681.56;5063778;28;20608;-68
2022/10/24 03:34:47;;;;;;;;;;;;;;;7.37;100.00;95686.38;5068253;28;19928;-68
2022/10/24 03:37:13;;;;;;;;;;;;;;;7.44;100.00;95687.22;5058513;28;20434;-69
2022/10/24 03:39:40;;;;;;;;;;;;;;;7.45;100.00;95690.59;5066926;28;20462;-68
2022/10/24 03:42:06;;;;;;;;;;;;;;;7.39;100.00;95688.78;5063526;28;20023;-68
2022/10/24 03:44:33;;;;;;;;;;;;;;;7.33;100.00;95682.56;5068728;28;20387;-68
2022/10/24 03:47:00;;;;;;;;;;;;;;;7.32;100.00;95688.72;5060127;28;20011;-68
2022/10/24 03:49:26;;;;;;;;;;;;;;;7.34;100.00;95689.34;5065680;28;19929;-68
2022/10/24 03:51:59;;;;;;;;;;;;;;;7.34;100.00;95688.53;5068533;28;19949;-68
2022/10/24 03:54:25;;;;;;;;;;;;;;;7.32;100.00;95693.91;5064014;28;19929;-68
2022/10/24 03:56:52;;;;;;;;;;;;;;;7.30;100.00;95685.53;5061571;28;20009;-68
2022/10/24 03:59:18;;;;;;;;;;;;;;;7.22;100.00;95683.91;5060442;28;19963;-68
2022/10/24 04:01:45;;;;;;;;;;;;;;;7.23;100.00;95684.69;5062617;28;19962;-68
2022/10/24 04:04:12;;;;;;;;;;;;;;;7.22;100.00;95681.31;5061585;28;19928;-68
2022/10/24 04:06:39;;;;;;;;;;;;;;;7.26;100.00;95689.50;5097276;27;20372;-68
2022/10/24 04:09:06;;;;;;;;;;;;;;;7.30;100.00;95680.34;5060916;28;19925;-68
2022/10/24 04:11:32;;;;;;;;;;;;;;;7.26;100.00;95673.94;5063096;28;19928;-70
2022/10/24 04:14:02;;;;;;;;;;;;;;;7.26;100.00;95681.72;5055970;28;20447;-69
2022/10/24 04:16:34;;;;;;;;;;;;;;;7.19;100.00;95673.09;5060504;28;20626;-69
2022/10/24 04:19:00;;;;;;;;;;;;;;;7.17;100.00;95677.69;5059505;28;20260;-69
2022/10/24 04:21:27;;;;;;;;;;;;;;;7.19;100.00;95678.28;5061051;28;19968;-70
2022/10/24 04:23:54;;;;;;;;;;;;;;;7.13;100.00;95679.03;5061525;28;19950;-70
2022/10/24 04:26:20;;;;;;;;;;;;;;;7.14;100.00;95680.63;5060654;28;19998;-69
2022/10/24 04:28:47;;;;;;;;;;;;;;;7.13;100.00;95679.03;5058641;28;19936;-70
2022/10/24 04:31:14;;;;;;;;;;;;;;;7.06;100.00;95679.00;5062506;28;19943;-70
2022/10/24 04:33:46;;;;;;;;;;;;;;;7.08;100.00;95677.81;5059397;28;19930;-69
2022/10/24 04:36:13;;;;;;;;;;;;;;;7.07;100.00;95681.38;5056145;28;19979;-69
2022/10/24 04:38:39;;;;;;;;;;;;;;;6.96;100.00;95674.13;5064281;28;19932;-69
2022/10/24 04:41:06;;;;;;;;;;;;;;;6.97;100.00;95680.91;5061558;28;19932;-69
2022/10/24 04:43:38;;;;;;;;;;;;;;;6.92;100.00;95678.06;5061632;28;19932;-69
2022/10/24 04:46:05;;;;;;;;;;;;;;;6.89;100.00;95688.81;5060286;28;19924;-69
2022/10/24 04:48:31;;;;;;;;;;;;;;;6.88;100.00;95687.22;5066958;28;19994;-68
2022/10/24 04:50:58;;;;;;;;;;;;;;;6.88;100.00;95687.22;5062190;28;20068;-68
2022/10/24 04:53:25;;;;;;;;;;;;;;;6.87;100.00;95691.56;5061791;28;20022;-71
2022/10/24 04:55:52;;;;;;;;;;;;;;;6.86;100.00;95695.16;5060445;28;20042;-69
2022/10/24 04:58:19;;;;;;;;;;;;;;;6.82;100.00;95690.53;5065513;28;20005;-70
2022/10/24 05:00:48;;;;;;;;;;;;;;;6.91;100.00;95702.34;5062111;28;19978;-68
2022/10/24 05:03:18;;;;;;;;;;;;;;;6.95;100.00;95698.44;5055972;28;19928;-68
2022/10/24 05:05:46;;;;;;;;;;;;;;;7.01;100.00;95697.69;5063199;28;19951;-68
2022/10/24 05:08:12;;;;;;;;;;;;;;;7.05;100.00;95698.09;5057354;28;20711;-68
2022/10/24 05:10:39;;;;;;;;;;;;;;;7.12;100.00;95698.97;5067270;28;19932;-68
2022/10/24 05:13:06;;;;;;;;;;;;;;;7.18;100.00;95697.41;5057658;28;20015;-68
2022/10/24 05:15:32;;;;;;;;;;;;;;;7.23;100.00;95695.06;5067150;28;19932;-68
2022/10/24 05:17:59;;;;;;;;;;;;;;;7.34;100.00;95701.50;5058353;28;20080;-68
2022/10/24 05:20:26;;;;;;;;;;;;;;;7.38;100.00;95703.53;5059075;28;20470;-68
2022/10/24 05:22:52;;;;;;;;;;;;;;;7.40;100.00;95706.75;5056497;28;21532;-68
2022/10/24 05:25:19;;;;;;;;;;;;;;;7.50;100.00;95715.97;5057715;28;19952;-68
2022/10/24 05:27:46;;;;;;;;;;;;;;;7.56;100.00;95710.84;5056664;28;19940;-68
2022/10/24 05:30:12;;;;;;;;;;;;;;;7.66;100.00;95715.66;5056045;28;19928;-68
2022/10/24 05:32:39;;;;;;;;;;;;;;;7.73;100.00;95716.50;5055820;28;20592;-68
2022/10/24 05:35:06;;;;;;;;;;;;;;;7.79;100.00;95707.94;5058231;28;19932;-68
2022/10/24 05:37:34;;;;;;;;;;;;;;;8.01;100.00;95718.22;5059067;28;21531;-68
2022/10/24 05:40:01;;;;;;;;;;;;;;;8.06;100.00;95713.28;5057107;28;19998;-68
2022/10/24 05:42:28;;;;;;;;;;;;;;;8.13;100.00;95714.09;5060657;28;19936;-68
2022/10/24 05:44:55;;;;;;;;;;;;;;;8.17;100.00;95710.13;5056804;28;20055;-69
2022/10/24 05:47:21;;;;;;;;;;;;;;;8.28;100.00;95713.94;5058131;28;19960;-68
2022/10/24 05:49:52;;;;;;;;;;;;;;;8.37;100.00;95710.22;5053251;28;19931;-68
2022/10/24 05:52:19;;;;;;;;;;;;;;;8.47;100.00;95717.66;5061840;28;19929;-68
2022/10/24 05:54:46;;;;;;;;;;;;;;;8.58;100.00;95709.28;5057092;28;20320;-69
2022/10/24 05:57:32;;;;;;;;;;;;;;;8.67;100.00;95714.31;5059410;28;19931;-68
2022/10/24 05:59:59;;;;;;;;;;;;;;;8.67;100.00;95711.72;5055729;28;19935;-68
2022/10/24 06:02:26;;;;;;;;;;;;;;;8.74;100.00;95717.72;5061332;28;19935;-68
2022/10/24 06:04:55;;;;;;;;;;;;;;;8.92;100.00;95715.34;5056632;28;19928;-68
2022/10/24 06:07:21;;;;;;;;;;;;;;;9.18;100.00;95718.94;5055494;28;19935;-68
2022/10/24 06:09:48;;;;;;;;;;;;;;;9.34;100.00;95723.72;5059781;28;20005;-68
2022/10/24 06:12:15;;;;;;;;;;;;;;;9.50;100.00;95721.72;5058589;28;19931;-68
2022/10/24 06:14:43;;;;;;;;;;;;;;;9.62;100.00;95730.53;5059252;28;20053;-68
2022/10/24 06:17:10;;;;;;;;;;;;;;;9.58;100.00;95729.34;5055230;28;19925;-68
2022/10/24 06:19:37;;;;;;;;;;;;;;;9.71;100.00;95729.31;5056367;28;19936;-69
2022/10/24 06:22:05;;;;;;;;;;;;;;;9.61;100.00;95723.72;5055198;28;19932;-69
2022/10/24 06:24:35;;;;;;;;;;;;;;;9.61;100.00;95728.91;5059705;28;19990;-69
2022/10/24 06:27:02;;;;;;;;;;;;;;;9.92;100.00;95730.06;5056186;28;19928;-68
2022/10/24 06:29:29;;;;;;;;;;;;;;;10.03;100.00;95732.03;5060943;28;19936;-67
2022/10/24 06:31:55;;;;;;;;;;;;;;;9.97;100.00;95743.25;5055623;28;20860;-71
2022/10/24 06:34:22;;;;;;;;;;;;;;;9.94;100.00;95748.88;5055287;28;19920;-71
2022/10/24 06:36:49;;;;;;;;;;;;;;;9.93;100.00;95747.28;5055465;28;19920;-74
2022/10/24 06:39:16;;;;;;;;;;;;;;;9.77;100.00;95749.28;5059724;27;20025;-73
2022/10/24 06:41:43;;;;;;;;;;;;;;;9.73;100.00;95752.53;5058137;28;19932;-74
2022/10/24 06:44:12;;;;;;;;;;;;;;;9.90;100.00;95742.47;5052064;27;19939;-66
2022/10/24 06:46:39;;;;;;;;;;;;;;;10.18;100.00;95757.81;5060555;28;20554;-66
2022/10/24 06:49:08;;;;;;;;;;;;;;;10.11;100.00;95757.03;5057131;28;19935;-67
2022/10/24 06:51:35;;;;;;;;;;;;;;;10.19;100.00;95761.22;5060891;28;20319;-67
2022/10/24 06:54:02;;;;;;;;;;;;;;;10.37;100.00;95760.59;5057025;28;21406;-67
2022/10/24 06:56:28;;;;;;;;;;;;;;;10.72;100.00;95761.03;5058702;28;20045;-67
2022/10/24 06:58:55;;;;;;;;;;;;;;;10.85;100.00;95763.56;5053435;28;20619;-67
2022/10/24 07:01:23;;;;;;;;;;;;;;;11.03;100.00;95762.06;5055029;27;19929;-67
2022/10/24 07:03:50;;;;;;;;;;;;;;;11.09;100.00;95762.03;5054420;28;19932;-67
2022/10/24 07:06:19;;;;;;;;;;;;;;;11.05;100.00;95765.25;5072636;27;19931;-73
2022/10/24 07:08:46;;;;;;;;;;;;;;;10.95;100.00;95764.91;5074423;28;19939;-72
2022/10/24 07:11:13;;;;;;;;;;;;;;;11.20;100.00;95768.38;5056322;27;19936;-72
2022/10/24 07:13:39;;;;;;;;;;;;;;;11.49;100.00;95771.38;5059221;28;19925;-69
2022/10/24 07:16:06;;;;;;;;;;;;;;;11.64;100.00;95769.22;5054589;27;20596;-69
2022/10/24 07:18:33;;;;;;;;;;;;;;;11.46;100.00;95766.56;5059790;28;19968;-67
2022/10/24 07:21:01;;;;;;;;;;;;;;;11.50;100.00;95772.94;5054534;28;20043;-67
2022/10/24 07:23:28;;;;;;;;;;;;;;;11.47;100.00;95766.34;5058262;28;20111;-66
2022/10/24 07:25:59;;;;;;;;;;;;;;;11.76;100.00;95760.69;5062270;28;19939;-67
2022/10/24 07:28:26;;;;;;;;;;;;;;;11.87;100.00;95760.00;5058549;28;20297;-67
2022/10/24 07:30:52;;;;;;;;;;;;;;;12.03;100.00;95766.50;5057234;28;20306;-66
2022/10/24 07:33:19;;;;;;;;;;;;;;;12.00;100.00;95759.88;5060953;27;19932;-67
2022/10/24 07:35:46;;;;;;;;;;;;;;;12.43;100.00;95772.06;5057584;28;20405;-67
2022/10/24 07:38:13;;;;;;;;;;;;;;;12.62;100.00;95770.25;5056666;27;21138;-67
2022/10/24 07:40:44;;;;;;;;;;;;;;;12.56;100.00;95776.31;5063440;28;19935;-68
2022/10/24 07:43:10;;;;;;;;;;;;;;;12.62;100.00;95772.03;5066377;28;20471;-68
2022/10/24 07:45:38;;;;;;;;;;;;;;;12.85;100.00;95773.16;5069825;28;20015;-74
2022/10/24 07:48:05;;;;;;;;;;;;;;;12.98;100.00;95772.97;5062470;27;20867;-75
2022/10/24 07:50:33;;;;;;;;;;;;;;;13.00;100.00;95771.75;5069763;28;19928;-74
2022/10/24 07:53:00;;;;;;;;;;;;;;;13.13;100.00;95768.13;5069382;28;22863;-70
2022/10/24 07:55:27;;;;;;;;;;;;;;;13.37;100.00;95762.97;5067894;28;19928;-74
2022/10/24 07:57:53;;;;;;;;;;;;;;;13.34;100.00;95771.28;5056487;28;19970;-72
2022/10/24 08:00:20;;;;;;;;;;;;;;;13.45;100.00;95762.66;5063468;27;19928;-68
2022/10/24 08:02:47;;;;;;;;;;;;;;;13.58;100.00;95756.41;5062984;28;19936;-66
2022/10/24 08:05:14;;;;;;;;;;;;;;;13.86;100.00;95753.09;5062421;28;19972;-68
2022/10/24 08:07:47;;;;;;;;;;;;;;;13.93;100.00;95753.78;5063202;28;19932;-68
2022/10/24 08:10:33;;;;;;;;;;;;;;;14.06;100.00;95749.34;5065092;28;19928;-68
2022/10/24 08:13:00;;;;;;;;;;;;;;;14.32;100.00;95756.69;5062491;28;20036;-69
2022/10/24 08:15:27;;;;;;;;;;;;;;;14.52;100.00;95752.88;5063804;28;20302;-70
2022/10/24 08:17:54;;;;;;;;;;;;;;;14.62;100.00;95750.50;5063841;28;19986;-66
2022/10/24 08:20:20;;;;;;;;;;;;;;;14.58;100.00;95751.97;5066334;28;19928;-66
2022/10/24 08:22:47;;;;;;;;;;;;;;;14.34;100.00;95743.38;5065598;28;19928;-74
2022/10/24 08:25:14;;;;;;;;;;;;;;;14.67;99.19;95745.31;5064735;28;19924;-68
2022/10/24 08:27:41;;;;;;;;;;;;;;;14.99;99.08;95739.59;5065705;28;19967;-71
2022/10/24 08:30:13;;;;;;;;;;;;;;;15.27;98.42;95751.09;5059187;28;19928;-73
2022/10/24 08:32:39;;;;;;;;;;;;;;;15.41;97.24;95755.00;5063306;28;19929;-72
2022/10/24 08:35:06;;;;;;;;;;;;;;;15.60;93.86;95744.25;5071554;28;20582;-72
2022/10/24 08:37:36;;;;;;;;;;;;;;;15.23;93.65;95739.47;5064623;28;19928;-72
2022/10/24 08:40:11;;;;;;;;;;;;;;;15.03;95.04;95740.72;5062406;28;19964;-71
2022/10/24 08:42:38;;;;;;;;;;;;;;;15.44;93.06;95730.09;5066272;28;19928;-71
2022/10/24 08:45:09;;;;;;;;;;;;;;;15.65;92.00;95736.47;5057700;28;20251;-71
2022/10/24 08:47:44;;;;;;;;;;;;;;;15.75;90.72;95726.13;5057098;28;20076;-72
2022/10/24 08:50:16;;;;;;;;;;;;;;;15.91;89.33;95723.72;5056275;28;19924;-72
2022/10/24 08:52:46;;;;;;;;;;;;;;;16.02;89.17;95725.44;5055581;28;19935;-72
2022/10/24 08:55:19;;;;;;;;;;;;;;;16.11;88.28;95723.19;5068119;28;19939;-72
2022/10/24 08:58:04;;;;;;;;;;;;;;;16.45;86.25;95723.84;5058409;28;19985;-72
2022/10/24 09:00:35;;;;;;;;;;;;;;;16.56;84.14;95725.53;5059742;28;19932;-72
2022/10/24 09:03:02;;;;;;;;;;;;;;;16.70;83.82;95730.44;5066797;28;19966;-72
2022/10/24 09:05:35;;;;;;;;;;;;;;;16.72;83.34;95728.34;5062065;28;20014;-72
2022/10/24 09:08:05;;;;;;;;;;;;;;;17.04;82.09;95719.75;5063591;28;20017;-72
2022/10/24 09:10:40;;;;;;;;;;;;;;;16.86;81.93;95713.78;5062708;28;19963;-72
2022/10/24 09:13:11;;;;;;;;;;;;;;;16.53;83.64;95707.66;5062257;28;20043;-72
2022/10/24 09:15:39;;;;;;;;;;;;;;;16.94;82.33;95710.72;5066094;28;19932;-72
2022/10/24 09:18:13;;;;;;;;;;;;;;;17.18;81.29;95705.13;5061939;28;19928;-71
2022/10/24 09:20:39;;;;;;;;;;;;;;;17.48;80.00;95698.50;5066956;28;19928;-72
2022/10/24 09:23:06;;;;;;;;;;;;;;;17.46;79.45;95705.84;5063432;28;20025;-72
2022/10/24 09:25:34;;;;;;;;;;;;;;;17.58;79.63;95698.56;5065894;28;20023;-71
2022/10/24 09:28:02;;;;;;;;;;;;;;;17.82;78.18;95692.91;5066766;28;19931;-72
2022/10/24 09:30:29;;;;;;;;;;;;;;;17.72;78.12;95699.72;5065567;28;19924;-72
2022/10/24 09:33:03;;;;;;;;;;;;;;;18.03;76.39;95693.84;5067165;28;19940;-73
2022/10/24 09:35:30;;;;;;;;;;;;;;;18.19;75.93;95692.88;5063633;28;20662;-72
2022/10/24 09:37:58;;;;;;;;;;;;;;;18.39;75.21;95692.13;5060393;28;20577;-71
2022/10/24 09:40:26;;;;;;;;;;;;;;;18.22;74.88;95689.72;5064379;28;19981;-72
2022/10/24 09:43:17;;;;;;;;;;;;;;;18.43;74.53;95689.78;5067422;28;19993;-72
2022/10/24 09:45:47;;;;;;;;;;;;;;;18.59;72.68;95695.88;5063914;28;19932;-72
2022/10/24 09:48:16;;;;;;;;;;;;;;;18.54;73.12;95689.53;5100679;27;19932;-73
2022/10/24 09:50:44;;;;;;;;;;;;;;;18.94;72.47;95686.47;5067167;28;19928;-66
2022/10/24 09:53:38;;;;;;;;;;;;;;;18.91;70.00;95688.59;5066752;28;19928;-68
2022/10/24 09:56:13;;;;;;;;;;;;;;;19.05;70.16;95677.50;5066305;28;19924;-68
2022/10/24 09:58:40;;;;;;;;;;;;;;;19.21;69.48;95681.75;5069771;28;21365;-68
2022/10/24 10:01:10;;;;;;;;;;;;;;;19.56;68.06;95681.97;5058239;28;19932;-73
2022/10/24 10:03:37;;;;;;;;;;;;;;;19.52;67.97;95684.38;5065513;28;19977;-67
2022/10/24 10:06:13;;;;;;;;;;;;;;;19.68;66.81;95675.34;5061033;28;20153;-67
2022/10/24 10:08:40;;;;;;;;;;;;;;;19.44;67.55;95674.31;5067751;28;19947;-68
2022/10/24 10:11:09;;;;;;;;;;;;;;;19.73;68.09;95671.09;5062429;28;19932;-68
2022/10/24 10:13:52;;;;;;;;;;;;;;;19.84;67.19;95670.03;5065687;28;20605;-68
2022/10/24 10:16:28;;;;;;;;;;;;;;;20.21;66.01;95666.22;5059445;28;20700;-68
2022/10/24 10:19:15;;;;;;;;;;;;;;;20.34;63.87;95670.91;5056983;28;20431;-68
2022/10/24 10:21:54;;;;;;;;;;;;;;;20.60;62.13;95668.16;5056986;28;19928;-68
2022/10/24 10:24:44;;;;;;;;;;;;;;;20.55;61.90;95665.53;5061935;28;19950;-69
2022/10/24 10:27:26;;;;;;;;;;;;;;;20.87;61.20;95661.63;5064098;28;19932;-67
2022/10/24 10:30:16;;;;;;;;;;;;;;;21.23;60.06;95659.50;5060011;28;20019;-67
2022/10/24 10:33:01;;;;;;;;;;;;;;;21.38;58.51;95658.59;5060951;28;19978;-68
2022/10/24 10:35:46;;;;;;;;;;;;;;;21.44;59.03;95649.50;5052880;28;19928;-68
2022/10/24 10:38:31;;;;;;;;;;;;;;;21.33;58.05;95645.38;5055372;28;20321;-68
2022/10/24 10:41:01;;;;;;;;;;;;;;;21.29;58.34;95641.72;5053385;28;19932;-68
2022/10/24 10:43:29;;;;;;;;;;;;;;;21.13;59.60;95636.53;5057892;28;20734;-68
2022/10/24 10:45:59;;;;;;;;;;;;;;;21.50;59.29;95635.19;5058120;28;20081;-68
2022/10/24 10:48:32;;;;;;;;;;;;;;;21.83;56.67;95634.56;5056818;28;20720;-69
2022/10/24 10:51:02;;;;;;;;;;;;;;;21.84;55.83;95626.34;5057779;28;19928;-69
2022/10/24 10:53:37;;;;;;;;;;;;;;;22.09;55.34;95625.25;5062771;28;19928;-71
2022/10/24 10:56:03;;;;;;;;;;;;;;;22.23;55.94;95627.97;5058217;28;19979;-69
2022/10/24 10:58:36;;;;;;;;;;;;;;;22.64;53.55;95611.50;5059792;28;19990;-68
2022/10/24 11:01:16;;;;;;;;;;;;;;;22.63;51.71;95609.94;5055100;28;19994;-71
2022/10/24 11:03:57;;;;;;;;;;;;;;;22.85;51.96;95617.31;5055415;28;20606;-74
2022/10/24 11:06:29;;;;;;;;;;;;;;;22.85;50.87;95608.53;5059756;28;20645;-73
2022/10/24 11:08:59;;;;;;;;;;;;;;;22.81;51.74;95604.88;5057284;28;19932;-73
2022/10/24 11:11:31;;;;;;;;;;;;;;;23.17;52.35;95597.16;5055885;28;19928;-74
2022/10/24 11:14:06;;;;;;;;;;;;;;;23.32;50.30;95604.09;5056265;28;20621;-74
2022/10/24 11:16:34;;;;;;;;;;;;;;;23.35;49.61;95602.69;5055398;28;19943;-74
2022/10/24 11:19:21;;;;;;;;;;;;;;;23.39;50.10;95601.03;5058026;28;20019;-74
2022/10/24 11:21:48;;;;;;;;;;;;;;;23.06;50.18;95601.84;5055419;28;20417;-73
2022/10/24 11:24:20;;;;;;;;;;;;;;;23.22;49.93;95593.63;5057543;28;20004;-76
2022/10/24 11:26:52;;;;;;;;;;;;;;;23.47;49.13;95598.47;5054543;28;19939;-75
2022/10/24 11:29:18;;;;;;;;;;;;;;;23.38;49.55;95592.25;5076162;28;20003;-74
2022/10/24 11:31:52;;;;;;;;;;;;;;;23.87;47.70;95587.38;5056818;28;20002;-75
2022/10/24 11:34:22;;;;;;;;;;;;;;;24.10;47.65;95585.59;5059517;28;20697;-75
2022/10/24 11:37:04;;;;;;;;;;;;;;;24.20;46.66;95580.06;5060712;28;19928;-75
2022/10/24 11:39:51;;;;;;;;;;;;;;;23.88;47.19;95572.19;5065772;28;20401;-75
2022/10/24 11:42:24;;;;;;;;;;;;;;;23.96;46.59;95574.16;5065182;28;19930;-76
2022/10/24 11:44:59;;;;;;;;;;;;;;;24.27;47.09;95573.50;5067204;28;20016;-76
2022/10/24 11:47:26;;;;;;;;;;;;;;;24.41;45.97;95568.94;5067461;28;20032;-76
2022/10/24 11:49:56;;;;;;;;;;;;;;;24.48;45.74;95566.66;5069125;28;20011;-72
2022/10/24 11:52:28;;;;;;;;;;;;;;;24.81;45.25;95563.78;5064681;28;20545;-72
2022/10/24 11:54:54;;;;;;;;;;;;;;;24.72;46.38;95562.94;5067505;28;19931;-73
2022/10/24 11:57:24;;;;;;;;;;;;;;;24.86;44.31;95563.66;5067141;28;20397;-76
2022/10/24 11:59:52;;;;;;;;;;;;;;;24.95;43.37;95556.50;5062671;28;19986;-78
2022/10/24 12:02:49;;;;;;;;;;;;;;;24.92;42.91;95553.66;5062062;28;19925;-80
2022/10/24 12:05:27;;;;;;;;;;;;;;;25.51;42.25;95545.50;5065363;28;19936;-77
2022/10/24 12:08:13;;;;;;;;;;;;;;;25.30;40.36;95550.56;5065128;28;20462;-78
2022/10/24 12:10:58;;;;;;;;;;;;;;;25.27;40.08;95546.66;5067146;28;19935;-78
2022/10/24 12:13:37;;;;;;;;;;;;;;;25.59;38.96;95547.41;5057498;28;19935;-71
2022/10/24 12:16:04;;;;;;;;;;;;;;;25.82;38.75;95539.28;5060676;28;19990;-73
2022/10/24 12:18:30;;;;;;;;;;;;;;;26.17;38.21;95539.38;5061083;28;20820;-71
2022/10/24 12:21:01;;;;;;;;;;;;;;;26.65;37.04;95533.91;5057313;28;19964;-71
2022/10/24 12:23:28;;;;;;;;;;;;;;;27.06;35.42;95531.75;5058165;28;19935;-71
2022/10/24 12:26:06;;;;;;;;;;;;;;;27.55;34.53;95537.59;5057884;28;19936;-71
2022/10/24 12:28:34;;;;;;;;;;;;;;;27.17;34.98;95533.00;5060526;28;19990;-71
2022/10/24 12:31:10;;;;;;;;;;;;;;;28.41;32.90;95535.47;5058475;28;20044;-71
2022/10/24 12:33:36;;;;;;;;;;;;;;;28.83;31.19;95531.16;5061155;28;19928;-71
2022/10/24 12:36:03;;;;;;;;;;;;;;;29.15;30.63;95530.41;5055604;28;19939;-74
2022/10/24 12:38:30;;;;;;;;;;;;;;;29.86;30.11;95530.31;5095389;27;19932;-74
2022/10/24 12:40:58;;;;;;;;;;;;;;;30.83;28.59;95527.69;5057760;28;19936;-74
2022/10/24 12:43:47;;;;;;;;;;;;;;;30.60;27.86;95536.28;5060710;28;19943;-75
2022/10/24 12:46:13;;;;;;;;;;;;;;;31.34;27.19;95530.53;5055995;28;19932;-75
2022/10/24 12:48:57;;;;;;;;;;;;;;;31.25;27.15;95533.38;5045934;28;19924;-75
2022/10/24 12:51:35;;;;;;;;;;;;;;;32.00;26.20;95534.38;5061971;28;19931;-75
2022/10/24 12:54:01;;;;;;;;;;;;;;;31.97;25.72;95526.22;5059694;28;20019;-75
2022/10/24 12:56:28;;;;;;;;;;;;;;;31.31;26.88;95523.13;5073616;28;20505;-75
2022/10/24 12:58:56;;;;;;;;;;;;;;;31.69;26.44;95524.44;5060769;28;19924;-75